Time;durP1;ratioP1;P1;durP2;ratioP2;P2;SDS_P1;SDS_P2;PMS_P1;PMS_P2;Temp;Humidity;BMP_temperature;BMP_pressure;BME280_temperature;BME280_humidity;BME280_pressure;Samples;Min_cycle;Max_cycle;Signal;HPM_P1;HPM_P2
2023/05/29 00:00:25;;;;;;;;;;;;;;;11.84;89.25;102312.50;5013861;28;19980;-56
2023/05/29 00:02:50;;;;;;;;;;;;;;;11.84;88.87;102319.38;5021450;28;20829;-57
2023/05/29 00:05:16;;;;;;;;;;;;;;;11.79;90.73;102320.00;5018814;28;19925;-56
2023/05/29 00:07:41;;;;;;;;;;;;;;;11.70;90.56;102328.97;5021880;28;19929;-57
2023/05/29 00:10:07;;;;;;;;;;;;;;;11.66;89.43;102320.25;5011996;28;19944;-56
2023/05/29 00:12:33;;;;;;;;;;;;;;;11.65;88.28;102339.09;5018593;28;19913;-56
2023/05/29 00:14:58;;;;;;;;;;;;;;;11.57;88.27;102335.25;5018486;28;20424;-55
2023/05/29 00:17:23;;;;;;;;;;;;;;;11.55;87.50;102340.34;5016933;28;19921;-56
2023/05/29 00:19:49;;;;;;;;;;;;;;;11.46;87.27;102333.84;5018434;28;19917;-57
2023/05/29 00:22:14;;;;;;;;;;;;;;;11.45;86.60;102337.25;5014578;28;20273;-57
2023/05/29 00:24:39;;;;;;;;;;;;;;;11.43;86.45;102338.88;5022114;28;20326;-57
2023/05/29 00:27:04;;;;;;;;;;;;;;;11.38;86.72;102342.91;5018211;28;19968;-55
2023/05/29 00:29:30;;;;;;;;;;;;;;;11.33;85.43;102340.09;5013995;28;19968;-57
2023/05/29 00:31:56;;;;;;;;;;;;;;;11.36;85.69;102341.97;5012211;28;19922;-56
2023/05/29 00:34:22;;;;;;;;;;;;;;;11.24;86.24;102350.84;5015727;28;19928;-57
2023/05/29 00:36:48;;;;;;;;;;;;;;;11.19;85.59;102344.59;5012588;28;19972;-56
2023/05/29 00:39:13;;;;;;;;;;;;;;;11.14;84.87;102351.22;5014159;28;19949;-55
2023/05/29 00:41:39;;;;;;;;;;;;;;;11.10;84.37;102351.88;5021308;28;20342;-56
2023/05/29 00:44:04;;;;;;;;;;;;;;;11.10;84.38;102350.97;5019755;28;20015;-56
2023/05/29 00:46:31;;;;;;;;;;;;;;;11.02;84.92;102348.03;5018068;28;20376;-57
2023/05/29 00:48:57;;;;;;;;;;;;;;;11.07;84.03;102350.84;5017946;28;19921;-56
2023/05/29 00:51:23;;;;;;;;;;;;;;;10.95;84.54;102364.84;5015290;28;19987;-56
2023/05/29 00:53:50;;;;;;;;;;;;;;;10.95;84.36;102359.72;5016835;28;20376;-58
2023/05/29 00:56:17;;;;;;;;;;;;;;;10.91;83.99;102369.75;5019992;28;19917;-57
2023/05/29 00:58:42;;;;;;;;;;;;;;;10.87;85.08;102366.16;5021490;28;20402;-57
2023/05/29 01:01:08;;;;;;;;;;;;;;;10.86;85.03;102366.06;5011657;28;19917;-57
2023/05/29 01:03:35;;;;;;;;;;;;;;;10.78;84.91;102372.53;5012304;28;19917;-56
2023/05/29 01:06:01;;;;;;;;;;;;;;;10.73;85.26;102374.84;5017717;28;19940;-57
2023/05/29 01:08:26;;;;;;;;;;;;;;;10.67;85.50;102379.69;5021247;28;20387;-56
2023/05/29 01:10:54;;;;;;;;;;;;;;;10.67;84.67;102375.41;5022732;28;20299;-57
2023/05/29 01:13:23;;;;;;;;;;;;;;;10.60;86.16;102370.75;5020364;28;19997;-57
2023/05/29 01:15:51;;;;;;;;;;;;;;;10.57;86.00;102365.47;5018526;28;19925;-57
2023/05/29 01:18:23;;;;;;;;;;;;;;;10.53;86.40;102376.41;5021704;28;20463;-57
2023/05/29 01:20:54;;;;;;;;;;;;;;;10.50;85.60;102378.84;5016483;28;19998;-57
2023/05/29 01:23:34;;;;;;;;;;;;;;;10.44;86.19;102381.09;5019442;28;20359;-56
2023/05/29 01:26:11;;;;;;;;;;;;;;;10.36;87.04;102378.06;5015684;28;19913;-57
2023/05/29 01:28:39;;;;;;;;;;;;;;;10.37;85.05;102381.53;5014299;28;19924;-56
2023/05/29 01:31:05;;;;;;;;;;;;;;;10.30;85.46;102370.03;5016967;28;20067;-57
2023/05/29 01:33:30;;;;;;;;;;;;;;;10.30;87.33;102379.44;5016511;28;20400;-56
2023/05/29 01:35:55;;;;;;;;;;;;;;;10.23;85.93;102378.22;5016781;28;19922;-57
2023/05/29 01:38:21;;;;;;;;;;;;;;;10.20;86.13;102373.78;5018006;28;20012;-56
2023/05/29 01:40:46;;;;;;;;;;;;;;;10.18;86.85;102382.22;5017638;28;19953;-56
2023/05/29 01:43:12;;;;;;;;;;;;;;;10.19;86.50;102378.81;5028914;28;19921;-55
2023/05/29 01:45:37;;;;;;;;;;;;;;;10.13;86.21;102373.34;5027733;28;19927;-57
2023/05/29 01:48:03;;;;;;;;;;;;;;;10.11;86.90;102380.13;5024383;28;20303;-57
2023/05/29 01:50:29;;;;;;;;;;;;;;;10.07;87.11;102379.09;5025676;28;19975;-57
2023/05/29 01:52:54;;;;;;;;;;;;;;;10.07;87.18;102376.50;5019177;28;19918;-56
2023/05/29 01:55:20;;;;;;;;;;;;;;;10.05;86.63;102374.63;5016312;28;20392;-57
2023/05/29 01:57:45;;;;;;;;;;;;;;;9.99;86.61;102379.44;5012592;28;19917;-56
2023/05/29 02:00:11;;;;;;;;;;;;;;;9.95;87.80;102375.84;5014908;28;19952;-57
2023/05/29 02:02:40;;;;;;;;;;;;;;;9.93;86.75;102374.84;5012894;28;20315;-56
2023/05/29 02:05:06;;;;;;;;;;;;;;;9.89;87.92;102378.09;5013188;28;19913;-57
2023/05/29 02:07:31;;;;;;;;;;;;;;;9.84;88.35;102377.81;5018589;28;20315;-57
2023/05/29 02:09:57;;;;;;;;;;;;;;;9.88;85.82;102381.41;5018873;28;19927;-55
2023/05/29 02:12:22;;;;;;;;;;;;;;;9.84;87.22;102379.50;5022449;28;19974;-57
2023/05/29 02:14:48;;;;;;;;;;;;;;;9.78;86.30;102386.88;5019033;28;19917;-57
2023/05/29 02:17:14;;;;;;;;;;;;;;;9.78;85.92;102374.03;5013781;28;19917;-57
2023/05/29 02:19:39;;;;;;;;;;;;;;;9.74;88.16;102384.94;5015421;28;19972;-56
2023/05/29 02:22:05;;;;;;;;;;;;;;;9.73;88.20;102383.16;5017217;28;19969;-56
2023/05/29 02:24:30;;;;;;;;;;;;;;;9.68;87.25;102381.22;5017659;28;19925;-57
2023/05/29 02:26:56;;;;;;;;;;;;;;;9.65;86.99;102375.91;5017954;28;19929;-57
2023/05/29 02:29:21;;;;;;;;;;;;;;;9.62;87.05;102377.41;5014656;28;20028;-58
2023/05/29 02:31:46;;;;;;;;;;;;;;;9.59;86.92;102388.41;5014343;28;19980;-57
2023/05/29 02:34:11;;;;;;;;;;;;;;;9.58;87.42;102390.88;5013525;28;19921;-56
2023/05/29 02:36:38;;;;;;;;;;;;;;;9.54;88.83;102391.53;5017958;28;19917;-56
2023/05/29 02:39:03;;;;;;;;;;;;;;;9.52;87.51;102400.81;5014349;28;19944;-56
2023/05/29 02:41:29;;;;;;;;;;;;;;;9.49;88.35;102396.38;5022315;28;19921;-57
2023/05/29 02:43:54;;;;;;;;;;;;;;;9.52;88.02;102396.53;5013668;28;19917;-58
2023/05/29 02:46:21;;;;;;;;;;;;;;;9.50;87.42;102403.28;5027644;28;19924;-43
2023/05/29 02:48:46;;;;;;;;;;;;;;;9.47;89.12;102402.25;5026820;28;19948;-44
2023/05/29 02:51:12;;;;;;;;;;;;;;;9.44;88.45;102404.63;5022759;28;20389;-57
2023/05/29 02:53:37;;;;;;;;;;;;;;;9.42;88.36;102404.53;5028770;28;19967;-56
2023/05/29 02:56:03;;;;;;;;;;;;;;;9.39;88.55;102406.91;5030349;28;20284;-56
2023/05/29 02:58:28;;;;;;;;;;;;;;;9.39;89.73;102401.78;5027004;28;20291;-56
2023/05/29 03:00:53;;;;;;;;;;;;;;;9.40;89.20;102406.13;5016183;28;19975;-57
2023/05/29 03:03:18;;;;;;;;;;;;;;;9.30;89.44;102396.13;5015573;28;20015;-57
2023/05/29 03:05:44;;;;;;;;;;;;;;;9.32;90.07;102397.09;5015742;28;19917;-44
2023/05/29 03:08:10;;;;;;;;;;;;;;;9.32;89.68;102395.41;5013590;28;20367;-44
2023/05/29 03:10:35;;;;;;;;;;;;;;;9.24;91.01;102395.78;5019618;28;19917;-43
2023/05/29 03:13:00;;;;;;;;;;;;;;;9.23;91.06;102387.22;5016838;28;19927;-44
2023/05/29 03:15:25;;;;;;;;;;;;;;;9.25;90.35;102393.31;5018642;28;20032;-44
2023/05/29 03:17:51;;;;;;;;;;;;;;;9.26;89.02;102397.63;5017437;28;20446;-46
2023/05/29 03:20:16;;;;;;;;;;;;;;;9.23;91.14;102400.03;5017838;28;20929;-43
2023/05/29 03:22:41;;;;;;;;;;;;;;;9.20;90.19;102398.97;5016546;28;19944;-44
2023/05/29 03:25:07;;;;;;;;;;;;;;;9.16;90.04;102399.56;5025429;28;20346;-45
2023/05/29 03:27:32;;;;;;;;;;;;;;;9.19;91.19;102398.09;5019734;28;19917;-43
2023/05/29 03:29:58;;;;;;;;;;;;;;;9.09;92.14;102400.91;5022558;28;19917;-44
2023/05/29 03:32:23;;;;;;;;;;;;;;;9.16;90.08;102409.84;5016435;28;20347;-43
2023/05/29 03:34:49;;;;;;;;;;;;;;;9.13;92.16;102413.13;5017839;28;19929;-43
2023/05/29 03:37:14;;;;;;;;;;;;;;;9.11;91.69;102410.47;5014567;28;20004;-45
2023/05/29 03:39:39;;;;;;;;;;;;;;;9.10;92.75;102408.72;5017879;28;19956;-43
2023/05/29 03:42:05;;;;;;;;;;;;;;;9.08;91.17;102406.84;5016399;28;19929;-44
2023/05/29 03:44:30;;;;;;;;;;;;;;;9.02;92.31;102409.91;5019750;28;20240;-46
2023/05/29 03:46:55;;;;;;;;;;;;;;;9.02;92.23;102407.34;5017032;28;19970;-44
2023/05/29 03:49:20;;;;;;;;;;;;;;;9.00;92.63;102408.94;5019991;28;20383;-46
2023/05/29 03:51:46;;;;;;;;;;;;;;;9.04;92.89;102410.00;5027174;28;19920;-44
2023/05/29 03:54:11;;;;;;;;;;;;;;;9.02;92.46;102416.72;5025967;28;19913;-47
2023/05/29 03:56:36;;;;;;;;;;;;;;;9.04;93.38;102415.13;5023447;28;19929;-44
2023/05/29 03:59:02;;;;;;;;;;;;;;;9.06;92.87;102411.88;5025289;28;19918;-43
2023/05/29 04:01:27;;;;;;;;;;;;;;;9.05;93.82;102420.38;5022987;28;20041;-46
2023/05/29 04:03:53;;;;;;;;;;;;;;;8.98;93.08;102425.94;5021715;28;19924;-46
2023/05/29 04:06:20;;;;;;;;;;;;;;;8.98;93.92;102428.50;5022902;28;20287;-47
2023/05/29 04:08:45;;;;;;;;;;;;;;;9.02;92.77;102435.56;5020208;28;20448;-43
2023/05/29 04:11:11;;;;;;;;;;;;;;;9.02;92.11;102435.56;5023376;28;19960;-47
2023/05/29 04:13:37;;;;;;;;;;;;;;;9.03;93.39;102439.91;5016724;28;20008;-44
2023/05/29 04:16:02;;;;;;;;;;;;;;;9.04;93.11;102441.72;5016478;28;20001;-46
2023/05/29 04:18:28;;;;;;;;;;;;;;;9.09;92.75;102442.84;5023952;28;19956;-45
2023/05/29 04:20:54;;;;;;;;;;;;;;;9.09;92.89;102439.38;5020087;28;19921;-44
2023/05/29 04:23:19;;;;;;;;;;;;;;;9.13;93.33;102436.22;5024244;28;19921;-56
2023/05/29 04:25:44;;;;;;;;;;;;;;;9.20;93.05;102434.91;5022883;28;19918;-57
2023/05/29 04:28:10;;;;;;;;;;;;;;;9.42;91.54;102440.50;5024411;28;19921;-56
2023/05/29 04:30:36;;;;;;;;;;;;;;;9.70;90.98;102442.06;5021855;28;19917;-57
2023/05/29 04:33:01;;;;;;;;;;;;;;;9.94;89.67;102449.44;5021116;28;19944;-57
2023/05/29 04:35:28;;;;;;;;;;;;;;;10.20;88.57;102442.31;5019145;28;19956;-57
2023/05/29 04:37:53;;;;;;;;;;;;;;;10.34;87.78;102448.25;5019527;28;19918;-58
2023/05/29 04:40:20;;;;;;;;;;;;;;;10.45;87.24;102444.56;5019008;28;20394;-57
2023/05/29 04:42:46;;;;;;;;;;;;;;;10.53;86.90;102452.69;5021338;28;20016;-57
2023/05/29 04:45:11;;;;;;;;;;;;;;;10.74;85.87;102444.41;5020263;28;19956;-57
2023/05/29 04:47:42;;;;;;;;;;;;;;;10.83;85.75;102443.13;5019955;28;20039;-56
2023/05/29 04:50:09;;;;;;;;;;;;;;;10.96;84.47;102455.81;5021065;28;19924;-57
2023/05/29 04:52:36;;;;;;;;;;;;;;;11.00;84.32;102450.03;5013986;28;19918;-56
2023/05/29 04:55:02;;;;;;;;;;;;;;;11.04;84.56;102446.78;5029263;28;20327;-58
2023/05/29 04:57:27;;;;;;;;;;;;;;;11.12;83.70;102449.78;5020494;28;19979;-57
2023/05/29 04:59:52;;;;;;;;;;;;;;;11.12;83.32;102445.50;5016276;28;19917;-57
2023/05/29 05:02:17;;;;;;;;;;;;;;;10.99;83.90;102449.16;5019068;28;20000;-57
2023/05/29 05:04:43;;;;;;;;;;;;;;;10.86;83.79;102451.91;5013714;28;19928;-57
2023/05/29 05:07:08;;;;;;;;;;;;;;;11.00;84.26;102452.59;5016285;28;20376;-57
2023/05/29 05:09:33;;;;;;;;;;;;;;;11.25;82.74;102454.75;5019355;28;19925;-56
2023/05/29 05:11:59;;;;;;;;;;;;;;;11.40;82.18;102454.59;5017474;28;19924;-57
2023/05/29 05:14:24;;;;;;;;;;;;;;;11.63;81.65;102461.78;5018880;28;20000;-56
2023/05/29 05:16:50;;;;;;;;;;;;;;;11.88;81.48;102468.16;5015144;28;20004;-58
2023/05/29 05:19:16;;;;;;;;;;;;;;;11.97;80.70;102471.22;5019773;28;20319;-57
2023/05/29 05:21:41;;;;;;;;;;;;;;;12.16;79.52;102478.13;5015797;28;19917;-57
2023/05/29 05:24:06;;;;;;;;;;;;;;;12.28;79.34;102479.56;5027014;28;19925;-57
2023/05/29 05:26:32;;;;;;;;;;;;;;;12.32;77.94;102478.91;5022859;28;19928;-57
2023/05/29 05:28:57;;;;;;;;;;;;;;;12.43;78.92;102481.97;5021305;28;19954;-57
2023/05/29 05:31:23;;;;;;;;;;;;;;;12.69;78.06;102492.63;5015196;28;20299;-44
2023/05/29 05:33:48;;;;;;;;;;;;;;;12.86;77.53;102489.06;5015751;28;19980;-44
2023/05/29 05:36:14;;;;;;;;;;;;;;;13.12;77.14;102485.06;5015512;28;20003;-43
2023/05/29 05:38:39;;;;;;;;;;;;;;;13.19;73.55;102491.38;5014362;28;20016;-45
2023/05/29 05:41:04;;;;;;;;;;;;;;;13.09;74.89;102490.09;5012407;28;20011;-44
2023/05/29 05:43:30;;;;;;;;;;;;;;;13.04;73.72;102491.59;5014424;28;20438;-43
2023/05/29 05:45:55;;;;;;;;;;;;;;;13.08;73.65;102489.22;5013263;28;19924;-44
2023/05/29 05:48:20;;;;;;;;;;;;;;;13.14;74.49;102484.31;5017366;28;19917;-55
2023/05/29 05:50:45;;;;;;;;;;;;;;;13.28;74.38;102481.47;5012058;28;20016;-57
2023/05/29 05:53:11;;;;;;;;;;;;;;;13.44;73.63;102480.44;5012751;28;19957;-57
2023/05/29 05:55:36;;;;;;;;;;;;;;;13.45;71.39;102477.03;5010129;28;19918;-57
2023/05/29 05:58:01;;;;;;;;;;;;;;;13.53;72.35;102478.22;5017769;28;19918;-57
2023/05/29 06:00:27;;;;;;;;;;;;;;;13.69;70.28;102473.75;5013835;28;19979;-57
2023/05/29 06:02:53;;;;;;;;;;;;;;;13.44;71.45;102470.97;5010114;28;19925;-57
2023/05/29 06:05:18;;;;;;;;;;;;;;;13.57;70.19;102475.81;5016829;28;20039;-57
2023/05/29 06:07:43;;;;;;;;;;;;;;;13.78;71.45;102481.00;5014584;28;19927;-57
2023/05/29 06:10:09;;;;;;;;;;;;;;;13.95;69.72;102485.16;5017334;28;20008;-57
2023/05/29 06:12:37;;;;;;;;;;;;;;;14.06;69.43;102489.84;5011637;28;20395;-56
2023/05/29 06:15:04;;;;;;;;;;;;;;;14.12;69.21;102482.34;5017105;28;19914;-57
2023/05/29 06:17:29;;;;;;;;;;;;;;;14.07;69.16;102494.19;5015625;28;19944;-56
2023/05/29 06:19:54;;;;;;;;;;;;;;;13.91;67.62;102487.56;5015733;28;19913;-57
2023/05/29 06:22:20;;;;;;;;;;;;;;;14.03;67.38;102494.94;5013735;28;19944;-58
2023/05/29 06:24:45;;;;;;;;;;;;;;;13.98;68.39;102501.63;5018973;28;19921;-57
2023/05/29 06:27:10;;;;;;;;;;;;;;;13.99;67.30;102505.97;5023925;28;19925;-57
2023/05/29 06:29:36;;;;;;;;;;;;;;;14.01;65.56;102506.91;5015061;28;20398;-57
2023/05/29 06:32:01;;;;;;;;;;;;;;;14.04;68.03;102509.63;5014173;28;20018;-57
2023/05/29 06:34:26;;;;;;;;;;;;;;;14.08;66.79;102511.53;5015097;28;19921;-57
2023/05/29 06:36:52;;;;;;;;;;;;;;;14.11;65.17;102511.63;5038590;28;20352;-57
2023/05/29 06:39:18;;;;;;;;;;;;;;;13.91;67.21;102503.94;5019292;28;19933;-56
2023/05/29 06:41:43;;;;;;;;;;;;;;;13.90;66.61;102507.38;5024415;28;19917;-57
2023/05/29 06:44:08;;;;;;;;;;;;;;;13.97;65.85;102507.63;5016161;28;19921;-56
2023/05/29 06:46:33;;;;;;;;;;;;;;;13.97;64.24;102508.50;5024921;28;19917;-57
2023/05/29 06:48:59;;;;;;;;;;;;;;;14.06;65.61;102507.97;5023128;28;19921;-57
2023/05/29 06:51:24;;;;;;;;;;;;;;;13.94;66.11;102509.22;5025703;28;20024;-56
2023/05/29 06:53:49;;;;;;;;;;;;;;;14.12;65.44;102506.50;5021942;28;19917;-57
2023/05/29 06:56:15;;;;;;;;;;;;;;;14.27;64.58;102502.78;5019588;28;20360;-57
2023/05/29 06:58:40;;;;;;;;;;;;;;;14.28;64.74;102513.19;5022024;28;19971;-57
2023/05/29 07:01:05;;;;;;;;;;;;;;;14.45;64.66;102506.06;5018292;28;19968;-57
2023/05/29 07:03:30;;;;;;;;;;;;;;;14.75;64.03;102503.78;5022026;28;20302;-57
2023/05/29 07:05:56;;;;;;;;;;;;;;;14.97;61.11;102510.63;5022642;28;19972;-56
2023/05/29 07:08:22;;;;;;;;;;;;;;;14.87;61.27;102513.72;5018179;28;19929;-57
2023/05/29 07:10:48;;;;;;;;;;;;;;;14.74;61.92;102508.09;5020742;28;19928;-57
2023/05/29 07:13:14;;;;;;;;;;;;;;;14.71;60.71;102502.78;5018567;28;19921;-56
2023/05/29 07:15:40;;;;;;;;;;;;;;;14.87;61.17;102499.06;5020299;28;19921;-57
2023/05/29 07:18:05;;;;;;;;;;;;;;;14.88;61.06;102502.53;5017514;28;19921;-56
2023/05/29 07:20:30;;;;;;;;;;;;;;;15.07;60.99;102509.25;5017875;28;19918;-57
2023/05/29 07:22:55;;;;;;;;;;;;;;;14.89;59.42;102518.13;5019799;28;20367;-57
2023/05/29 07:25:21;;;;;;;;;;;;;;;14.87;61.16;102506.81;5018367;28;19957;-57
2023/05/29 07:27:46;;;;;;;;;;;;;;;14.91;61.25;102511.28;5019826;28;19940;-57
2023/05/29 07:30:11;;;;;;;;;;;;;;;15.17;59.89;102516.53;5016664;28;19921;-58
2023/05/29 07:32:37;;;;;;;;;;;;;;;15.29;59.44;102515.25;5014503;28;20020;-57
2023/05/29 07:35:02;;;;;;;;;;;;;;;15.21;59.16;102516.66;5013960;28;20299;-57
2023/05/29 07:37:29;;;;;;;;;;;;;;;15.17;58.37;102519.13;5013086;28;19918;-56
2023/05/29 07:39:54;;;;;;;;;;;;;;;15.17;60.27;102519.13;5014759;28;19921;-56
2023/05/29 07:42:20;;;;;;;;;;;;;;;15.17;58.76;102516.53;5017751;28;19918;-57
2023/05/29 07:44:45;;;;;;;;;;;;;;;15.05;59.16;102523.88;5018797;28;19925;-58
2023/05/29 07:47:11;;;;;;;;;;;;;;;15.18;58.80;102531.25;5019694;28;20297;-56
2023/05/29 07:49:36;;;;;;;;;;;;;;;15.18;59.16;102523.47;5020541;28;19925;-57
2023/05/29 07:52:02;;;;;;;;;;;;;;;15.43;58.01;102528.69;5020299;28;19921;-56
2023/05/29 07:54:27;;;;;;;;;;;;;;;15.54;56.93;102522.16;5020096;28;19936;-56
2023/05/29 07:56:52;;;;;;;;;;;;;;;15.46;56.52;102527.88;5015360;28;19923;-56
2023/05/29 07:59:18;;;;;;;;;;;;;;;15.24;58.00;102523.69;5015884;28;19917;-56
2023/05/29 08:01:44;;;;;;;;;;;;;;;15.34;57.42;102530.94;5015883;28;20599;-57
2023/05/29 08:04:09;;;;;;;;;;;;;;;15.37;57.76;102525.00;5018373;28;20403;-57
2023/05/29 08:06:34;;;;;;;;;;;;;;;15.44;56.67;102539.94;5017730;28;19972;-58
2023/05/29 08:09:00;;;;;;;;;;;;;;;15.39;56.84;102538.88;5022645;28;20611;-59
2023/05/29 08:11:25;;;;;;;;;;;;;;;15.39;56.15;102539.75;5016662;28;19956;-57
2023/05/29 08:13:51;;;;;;;;;;;;;;;15.55;55.81;102539.47;5017747;28;20363;-57
2023/05/29 08:16:16;;;;;;;;;;;;;;;15.63;55.84;102525.91;5024047;28;19991;-57
2023/05/29 08:18:42;;;;;;;;;;;;;;;15.81;55.24;102540.38;5018829;28;19917;-58
2023/05/29 08:21:09;;;;;;;;;;;;;;;15.72;54.48;102536.63;5020138;28;20411;-57
2023/05/29 08:23:34;;;;;;;;;;;;;;;15.75;54.12;102547.06;5018531;28;20016;-56
2023/05/29 08:25:59;;;;;;;;;;;;;;;15.82;55.15;102542.13;5018112;28;20556;-56
2023/05/29 08:28:26;;;;;;;;;;;;;;;15.80;54.23;102542.94;5018801;28;19921;-57
2023/05/29 08:30:51;;;;;;;;;;;;;;;15.59;55.61;102539.56;5013690;28;20245;-57
2023/05/29 08:33:16;;;;;;;;;;;;;;;15.66;54.76;102539.00;5015740;28;19976;-57
2023/05/29 08:35:42;;;;;;;;;;;;;;;15.71;54.45;102542.59;5012589;28;19979;-57
2023/05/29 08:38:07;;;;;;;;;;;;;;;15.59;54.95;102539.56;5013070;28;19985;-57
2023/05/29 08:40:32;;;;;;;;;;;;;;;15.67;55.19;102544.22;5015425;28;20376;-56
2023/05/29 08:43:17;;;;;;;;;;;;;;;15.85;54.94;102543.97;5019014;28;19928;-57
2023/05/29 08:45:45;;;;;;;;;;;;;;;16.21;53.79;102549.47;5019459;28;19913;-58
2023/05/29 08:48:11;;;;;;;;;;;;;;;16.12;54.08;102546.56;5017903;28;19913;-57
2023/05/29 08:50:42;;;;;;;;;;;;;;;16.14;54.07;102554.38;5018435;28;19920;-57
2023/05/29 08:53:08;;;;;;;;;;;;;;;16.02;52.64;102552.31;5015296;28;19921;-56
2023/05/29 08:55:34;;;;;;;;;;;;;;;15.94;53.23;102556.34;5015999;28;20376;-56
2023/05/29 08:57:59;;;;;;;;;;;;;;;16.03;53.24;102554.06;5012711;28;19921;-57
2023/05/29 09:00:28;;;;;;;;;;;;;;;16.01;53.44;102547.94;5015581;28;19922;-57
2023/05/29 09:02:55;;;;;;;;;;;;;;;16.13;53.70;102550.03;5012346;28;19921;-57
2023/05/29 09:05:21;;;;;;;;;;;;;;;16.35;52.46;102547.28;5016434;28;19952;-57
2023/05/29 09:07:46;;;;;;;;;;;;;;;16.22;52.57;102556.41;5013557;28;19948;-57
2023/05/29 09:10:13;;;;;;;;;;;;;;;16.25;52.57;102551.31;5022323;28;19925;-57
2023/05/29 09:12:39;;;;;;;;;;;;;;;16.38;51.36;102547.41;5019569;28;19921;-56
2023/05/29 09:15:16;;;;;;;;;;;;;;;16.21;52.31;102546.88;5022334;28;19925;-56
2023/05/29 09:17:42;;;;;;;;;;;;;;;16.14;53.12;102552.69;5016029;28;19943;-57
2023/05/29 09:20:19;;;;;;;;;;;;;;;16.20;53.24;102546.78;5016697;28;20028;-57
2023/05/29 09:23:00;;;;;;;;;;;;;;;16.28;53.06;102534.97;5022006;28;19913;-56
2023/05/29 09:25:27;;;;;;;;;;;;;;;16.28;52.85;102555.72;5020490;28;19959;-57
2023/05/29 09:27:55;;;;;;;;;;;;;;;16.39;52.18;102558.66;5018230;28;20460;-56
2023/05/29 09:30:35;;;;;;;;;;;;;;;16.27;51.08;102546.19;5015333;28;20012;-55
2023/05/29 09:33:01;;;;;;;;;;;;;;;16.08;53.06;102550.78;5014136;28;19921;-57
2023/05/29 09:35:37;;;;;;;;;;;;;;;16.22;52.29;102551.22;5014621;28;19964;-57
2023/05/29 09:38:03;;;;;;;;;;;;;;;16.30;52.58;102544.56;5013820;28;19913;-56
2023/05/29 09:40:32;;;;;;;;;;;;;;;16.55;52.79;102540.97;5011770;28;19964;-56
2023/05/29 09:43:04;;;;;;;;;;;;;;;16.84;51.52;102539.28;5011026;28;19929;-57
2023/05/29 09:45:30;;;;;;;;;;;;;;;16.68;51.08;102544.81;5017972;28;19920;-56
2023/05/29 09:47:55;;;;;;;;;;;;;;;16.51;52.55;102531.38;5016370;28;19918;-57
2023/05/29 09:50:25;;;;;;;;;;;;;;;16.56;51.68;102534.97;5021118;28;19963;-56
2023/05/29 09:52:52;;;;;;;;;;;;;;;16.62;52.16;102542.03;5014954;28;19914;-56
2023/05/29 09:55:19;;;;;;;;;;;;;;;16.81;51.65;102547.00;5016941;28;19980;-57
2023/05/29 09:57:46;;;;;;;;;;;;;;;16.80;51.10;102542.63;5013332;28;20258;-57
2023/05/29 10:00:13;;;;;;;;;;;;;;;16.78;52.24;102528.72;5016908;28;20295;-56
2023/05/29 10:02:39;;;;;;;;;;;;;;;16.91;51.39;102537.75;5013873;28;20257;-56
2023/05/29 10:05:05;;;;;;;;;;;;;;;16.96;50.97;102543.06;5017340;28;19925;-57
2023/05/29 10:07:35;;;;;;;;;;;;;;;17.01;50.28;102536.31;5013729;28;19951;-57
2023/05/29 10:10:02;;;;;;;;;;;;;;;16.95;51.32;102529.22;5012645;28;20388;-56
2023/05/29 10:12:28;;;;;;;;;;;;;;;16.93;51.00;102536.09;5022247;28;19988;-57
2023/05/29 10:14:56;;;;;;;;;;;;;;;17.14;50.88;102538.41;5016081;28;19920;-56
2023/05/29 10:17:23;;;;;;;;;;;;;;;17.23;50.32;102538.66;5015301;28;20004;-55
2023/05/29 10:19:50;;;;;;;;;;;;;;;17.26;50.38;102543.94;5012313;28;19927;-55
2023/05/29 10:22:17;;;;;;;;;;;;;;;17.12;50.30;102532.28;5016302;28;20009;-56
2023/05/29 10:24:43;;;;;;;;;;;;;;;17.26;49.81;102532.66;5025871;28;20387;-56
2023/05/29 10:27:08;;;;;;;;;;;;;;;17.17;49.63;102530.69;5023898;28;19983;-56
2023/05/29 10:29:37;;;;;;;;;;;;;;;17.10;50.10;102521.81;5024045;28;19922;-56
2023/05/29 10:32:11;;;;;;;;;;;;;;;17.26;49.50;102530.06;5025284;28;19913;-55
2023/05/29 10:34:39;;;;;;;;;;;;;;;17.19;49.88;102526.41;5019686;28;19936;-57
2023/05/29 10:37:22;;;;;;;;;;;;;;;17.21;50.92;102526.44;5016554;28;19928;-56
2023/05/29 10:39:47;;;;;;;;;;;;;;;17.50;50.04;102515.09;5016372;28;19913;-56
2023/05/29 10:42:32;;;;;;;;;;;;;;;17.73;49.65;102515.72;5016323;28;20376;-56
2023/05/29 10:44:58;;;;;;;;;;;;;;;17.79;49.03;102515.00;5014267;28;19984;-55
2023/05/29 10:47:23;;;;;;;;;;;;;;;18.04;48.82;102517.34;5009920;28;20392;-56
2023/05/29 10:49:49;;;;;;;;;;;;;;;18.09;47.67;102530.47;5010767;28;20375;-55
2023/05/29 10:52:18;;;;;;;;;;;;;;;17.90;47.95;102523.94;5021480;28;19996;-57
2023/05/29 10:54:50;;;;;;;;;;;;;;;17.85;47.35;102520.34;5015614;28;19913;-56
2023/05/29 10:57:16;;;;;;;;;;;;;;;17.96;48.35;102521.50;5015293;28;20383;-58
2023/05/29 10:59:41;;;;;;;;;;;;;;;18.01;47.60;102530.25;5015687;28;19928;-56
2023/05/29 11:02:06;;;;;;;;;;;;;;;17.96;47.65;102513.69;5016137;28;20295;-55
2023/05/29 11:04:32;;;;;;;;;;;;;;;17.96;47.15;102526.69;5012644;28;19960;-56
2023/05/29 11:06:58;;;;;;;;;;;;;;;17.93;47.19;102518.81;5018089;28;19921;-56
2023/05/29 11:09:34;;;;;;;;;;;;;;;17.86;47.70;102519.50;5018971;28;19925;-56
2023/05/29 11:12:10;;;;;;;;;;;;;;;17.84;48.56;102509.06;5011364;28;20349;-56
2023/05/29 11:14:52;;;;;;;;;;;;;;;17.90;48.12;102509.22;5015927;28;20347;-57
2023/05/29 11:17:36;;;;;;;;;;;;;;;17.92;47.94;102511.84;5015486;28;20284;-56
2023/05/29 11:20:05;;;;;;;;;;;;;;;17.96;48.20;102508.47;5014410;28;19968;-56
2023/05/29 11:22:41;;;;;;;;;;;;;;;18.06;47.31;102513.03;5017995;28;20379;-56
2023/05/29 11:25:07;;;;;;;;;;;;;;;18.12;47.76;102499.28;5027188;28;20364;-56
2023/05/29 11:27:33;;;;;;;;;;;;;;;18.14;47.33;102498.50;5019778;28;20004;-56
2023/05/29 11:29:58;;;;;;;;;;;;;;;18.11;47.81;102502.75;5025166;28;20284;-56
2023/05/29 11:32:27;;;;;;;;;;;;;;;18.28;47.93;102506.63;5018049;28;19918;-56
2023/05/29 11:34:55;;;;;;;;;;;;;;;18.48;46.56;102507.91;5021638;28;19967;-56
2023/05/29 11:37:22;;;;;;;;;;;;;;;18.37;45.88;102505.91;5020454;28;20277;-57
2023/05/29 11:39:47;;;;;;;;;;;;;;;18.53;46.18;102491.53;5018524;28;19913;-57
2023/05/29 11:42:14;;;;;;;;;;;;;;;18.56;44.21;102499.38;5015976;28;19926;-57
2023/05/29 11:44:40;;;;;;;;;;;;;;;18.47;45.46;102500.97;5018830;28;19917;-57
2023/05/29 11:47:06;;;;;;;;;;;;;;;18.44;45.01;102497.38;5016269;28;20292;-57
2023/05/29 11:49:33;;;;;;;;;;;;;;;18.52;45.23;102490.63;5014056;28;19968;-56
2023/05/29 11:52:07;;;;;;;;;;;;;;;18.51;44.83;102490.63;5013349;28;19933;-56
2023/05/29 11:54:34;;;;;;;;;;;;;;;18.57;45.91;102486.41;5018105;28;19920;-57
2023/05/29 11:57:00;;;;;;;;;;;;;;;18.79;45.46;102490.34;5016562;28;19917;-56
2023/05/29 11:59:28;;;;;;;;;;;;;;;18.93;44.86;102488.91;5019734;28;20292;-47
2023/05/29 12:01:53;;;;;;;;;;;;;;;19.05;45.44;102482.16;5018966;28;20333;-48
2023/05/29 12:04:18;;;;;;;;;;;;;;;19.14;43.12;102487.56;5017310;28;20407;-49
2023/05/29 12:06:44;;;;;;;;;;;;;;;19.08;43.90;102490.03;5014925;28;21021;-45
2023/05/29 12:09:22;;;;;;;;;;;;;;;18.99;42.62;102485.56;5020045;28;19952;-45
2023/05/29 12:11:49;;;;;;;;;;;;;;;18.78;42.66;102483.38;5013738;28;20427;-44
2023/05/29 12:14:14;;;;;;;;;;;;;;;18.62;43.54;102487.34;5016088;28;19913;-46
2023/05/29 12:16:39;;;;;;;;;;;;;;;18.61;43.66;102488.22;5012886;28;19928;-46
2023/05/29 12:19:05;;;;;;;;;;;;;;;18.64;43.38;102488.28;5013006;28;19988;-44
2023/05/29 12:21:30;;;;;;;;;;;;;;;18.73;42.28;102491.09;5016484;28;19921;-47
2023/05/29 12:23:55;;;;;;;;;;;;;;;18.85;43.72;102484.38;5016820;28;19921;-44
2023/05/29 12:26:25;;;;;;;;;;;;;;;19.05;40.34;102484.75;5023450;28;19972;-43
2023/05/29 12:28:52;;;;;;;;;;;;;;;18.89;40.44;102481.00;5012044;28;19913;-47
2023/05/29 12:31:30;;;;;;;;;;;;;;;18.95;41.92;102470.69;5014505;28;21262;-48
2023/05/29 12:33:59;;;;;;;;;;;;;;;18.94;41.31;102479.38;5019454;28;20291;-47